createdAt,value
2022-08-18T00:00:06.473Z,26.97
2022-08-18T00:02:41.725Z,26.97
2022-08-18T00:05:13.143Z,26.80
2022-08-18T00:07:47.060Z,26.73
2022-08-18T00:10:18.706Z,26.80
2022-08-18T00:12:47.370Z,26.82
2022-08-18T00:15:17.206Z,26.87
2022-08-18T00:17:47.427Z,26.89
2022-08-18T00:20:18.545Z,26.56
2022-08-18T00:22:47.056Z,26.49
2022-08-18T00:25:17.529Z,26.64
2022-08-18T00:27:45.637Z,26.58
2022-08-18T00:30:16.968Z,26.46
2022-08-18T00:32:49.454Z,26.42
2022-08-18T00:35:21.015Z,26.61
2022-08-18T00:37:49.929Z,26.59
2022-08-18T00:40:20.522Z,26.48
2022-08-18T00:42:52.116Z,26.40
2022-08-18T00:45:24.020Z,26.34
2022-08-18T00:47:54.532Z,26.25
2022-08-18T00:50:27.335Z,26.22
2022-08-18T00:53:00.321Z,26.26
2022-08-18T00:55:30.954Z,26.43
2022-08-18T00:58:03.780Z,26.40
2022-08-18T01:00:33.270Z,26.44
2022-08-18T01:03:06.365Z,26.31
2022-08-18T01:05:40.934Z,26.39
2022-08-18T01:08:11.974Z,26.34
2022-08-18T01:10:40.708Z,26.15
2022-08-18T01:13:09.067Z,26.28
2022-08-18T01:15:37.961Z,26.32
2022-08-18T01:18:29.977Z,26.38
2022-08-18T01:21:19.671Z,26.03
2022-08-18T01:23:52.008Z,26.05
2022-08-18T01:26:21.891Z,26.02
2022-08-18T01:28:50.800Z,25.84
2022-08-18T01:31:53.244Z,25.94
2022-08-18T01:34:24.889Z,26.01
2022-08-18T01:36:54.244Z,25.95
2022-08-18T01:41:22.005Z,25.85
2022-08-18T01:42:12.782Z,26.00
2022-08-18T01:44:41.830Z,25.97
2022-08-18T01:47:10.865Z,25.66
2022-08-18T01:49:39.864Z,25.68
2022-08-18T01:52:08.248Z,25.80
2022-08-18T01:54:37.751Z,25.75
2022-08-18T01:57:06.213Z,25.81
2022-08-18T01:59:35.370Z,25.65
2022-08-18T02:02:03.680Z,25.85
2022-08-18T02:04:36.162Z,25.77
2022-08-18T02:07:07.756Z,25.77
2022-08-18T02:09:39.475Z,25.52
2022-08-18T02:12:09.203Z,25.64
2022-08-18T02:14:38.057Z,25.64
2022-08-18T02:17:08.949Z,25.67
2022-08-18T02:19:38.601Z,25.36
2022-08-18T02:22:08.093Z,25.39
2022-08-18T02:24:37.720Z,25.56
2022-08-18T02:27:06.799Z,25.40
2022-08-18T02:29:36.638Z,25.21
2022-08-18T02:32:05.513Z,25.30
2022-08-18T02:34:33.785Z,25.32
2022-08-18T02:37:02.139Z,25.23
2022-08-18T02:39:30.743Z,25.27
2022-08-18T02:42:00.316Z,25.18
2022-08-18T02:44:32.180Z,25.31
2022-08-18T02:47:00.500Z,25.17
2022-08-18T02:49:29.144Z,25.15
2022-08-18T02:51:57.322Z,25.12
2022-08-18T02:54:26.688Z,25.32
2022-08-18T02:59:27.955Z,25.14
2022-08-18T03:02:00.222Z,25.15
2022-08-18T03:04:32.617Z,24.96
2022-08-18T03:07:02.784Z,25.13
2022-08-18T03:09:31.671Z,25.10
2022-08-18T03:11:59.973Z,25.02
2022-08-18T03:14:29.672Z,25.10
2022-08-18T03:16:58.314Z,25.14
2022-08-18T03:19:28.784Z,24.77
2022-08-18T03:21:59.427Z,24.98
2022-08-18T03:24:32.244Z,25.00
2022-08-18T03:27:02.232Z,24.93
2022-08-18T03:29:32.942Z,24.44
2022-08-18T03:32:01.988Z,24.85
2022-08-18T03:34:30.296Z,24.75
2022-08-18T03:36:58.493Z,24.87
2022-08-18T03:39:28.090Z,24.99
2022-08-18T03:42:00.947Z,24.91
2022-08-18T03:44:33.404Z,24.97
2022-08-18T03:47:03.098Z,24.87
2022-08-18T03:49:32.457Z,24.85
2022-08-18T03:52:01.714Z,24.88
2022-08-18T03:54:32.296Z,24.82
2022-08-18T03:59:47.759Z,24.77
2022-08-18T04:02:15.854Z,24.76
2022-08-18T04:04:44.073Z,24.64
2022-08-18T04:07:14.648Z,24.74
2022-08-18T04:09:43.437Z,24.74
2022-08-18T04:12:16.184Z,24.88
2022-08-18T04:14:48.980Z,24.82
2022-08-18T04:17:20.434Z,24.75
2022-08-18T04:19:48.793Z,24.76
2022-08-18T04:22:18.565Z,24.83
2022-08-18T04:24:47.824Z,24.71
2022-08-18T04:27:18.968Z,24.88
2022-08-18T04:29:49.084Z,24.75
2022-08-18T04:32:17.328Z,24.57
2022-08-18T04:34:45.508Z,24.65
2022-08-18T04:37:15.535Z,24.62
2022-08-18T04:39:46.902Z,24.79
2022-08-18T04:42:15.756Z,25.12
2022-08-18T04:44:43.965Z,25.16
2022-08-18T04:47:13.619Z,25.11
2022-08-18T04:52:40.141Z,25.13
2022-08-18T04:55:10.403Z,25.14
2022-08-18T04:57:39.124Z,25.08
2022-08-18T05:00:09.044Z,25.20
2022-08-18T05:02:39.670Z,25.30
2022-08-18T05:05:08.998Z,25.40
2022-08-18T05:07:37.078Z,25.33
2022-08-18T05:10:06.885Z,25.40
2022-08-18T05:12:35.395Z,25.42
2022-08-18T05:15:03.514Z,25.24
2022-08-18T05:17:31.723Z,25.23
2022-08-18T05:20:04.622Z,25.29
2022-08-18T05:22:39.209Z,25.57
2022-08-18T05:27:54.199Z,25.51
2022-08-18T05:30:22.594Z,25.49
2022-08-18T05:32:50.959Z,25.69
2022-08-18T05:35:24.213Z,25.93
2022-08-18T05:38:18.229Z,25.90
2022-08-18T05:40:47.776Z,25.89
2022-08-18T05:43:16.873Z,25.95
2022-08-18T05:45:44.954Z,25.97
2022-08-18T05:48:13.068Z,25.75
2022-08-18T05:50:43.103Z,26.00
2022-08-18T05:53:14.587Z,25.94
2022-08-18T05:56:05.035Z,25.93
2022-08-18T05:58:35.406Z,26.06
2022-08-18T06:01:06.201Z,26.21
2022-08-18T06:03:45.481Z,26.18
2022-08-18T06:06:19.940Z,26.25
2022-08-18T06:08:54.265Z,26.30
2022-08-18T06:11:23.064Z,26.23
2022-08-18T06:13:59.634Z,26.46
2022-08-18T06:16:44.544Z,26.50
2022-08-18T06:19:33.589Z,26.51
2022-08-18T06:22:12.935Z,26.53
2022-08-18T06:24:47.241Z,26.74
2022-08-18T06:27:20.835Z,26.71
2022-08-18T06:29:58.922Z,26.79
2022-08-18T06:32:38.598Z,26.99
2022-08-18T06:35:15.527Z,27.15
2022-08-18T06:38:08.840Z,27.12
2022-08-18T06:40:37.458Z,27.32
2022-08-18T06:43:10.011Z,27.23
2022-08-18T06:45:42.230Z,27.21
2022-08-18T06:48:15.833Z,27.24
2022-08-18T06:50:50.235Z,27.30
2022-08-18T06:53:28.082Z,27.33
2022-08-18T06:55:56.764Z,27.27
2022-08-18T06:58:30.128Z,27.21
2022-08-18T07:01:04.152Z,27.36
2022-08-18T07:03:44.334Z,27.41
2022-08-18T07:06:26.508Z,27.34
2022-08-18T07:08:57.670Z,27.52
2022-08-18T07:11:28.113Z,27.51
2022-08-18T07:14:15.645Z,27.54
2022-08-18T07:16:58.387Z,27.61
2022-08-18T07:19:31.246Z,27.40
2022-08-18T07:22:03.768Z,27.50
2022-08-18T07:24:37.485Z,27.68
2022-08-18T07:27:08.459Z,27.55
2022-08-18T07:29:38.711Z,27.53
2022-08-18T07:32:21.153Z,27.65
2022-08-18T07:34:53.776Z,27.84
2022-08-18T07:37:28.541Z,27.85
2022-08-18T07:40:03.332Z,27.84
2022-08-18T07:42:54.310Z,27.73
2022-08-18T07:45:32.997Z,27.77
2022-08-18T07:48:27.344Z,27.58
2022-08-18T07:51:06.648Z,27.60
2022-08-18T07:53:55.927Z,27.65
2022-08-18T07:56:34.195Z,27.96
2022-08-18T07:59:06.473Z,28.05
2022-08-18T08:01:41.083Z,28.13
2022-08-18T08:04:25.723Z,28.13
2022-08-18T08:07:22.841Z,28.10
2022-08-18T08:09:53.675Z,28.16
2022-08-18T08:12:34.778Z,28.24
2022-08-18T08:15:10.179Z,28.31
2022-08-18T08:17:44.228Z,28.30
2022-08-18T08:20:21.297Z,28.36
2022-08-18T08:23:04.099Z,28.41
2022-08-18T08:25:47.244Z,28.45
2022-08-18T08:28:25.977Z,28.69
2022-08-18T08:31:33.399Z,28.65
2022-08-18T08:34:04.062Z,28.71
2022-08-18T08:36:37.522Z,28.97
2022-08-18T08:39:10.950Z,28.74
2022-08-18T08:41:43.356Z,28.74
2022-08-18T08:44:17.339Z,28.90
2022-08-18T08:46:47.613Z,29.00
2022-08-18T08:49:27.730Z,29.08
2022-08-18T08:51:59.116Z,29.12
2022-08-18T08:54:30.697Z,29.28
2022-08-18T08:57:01.313Z,29.35
2022-08-18T08:59:30.869Z,29.47
2022-08-18T09:02:15.971Z,29.60
2022-08-18T09:05:08.995Z,29.70
2022-08-18T09:07:51.371Z,30.06
2022-08-18T09:10:34.156Z,29.85
2022-08-18T09:13:14.906Z,29.88
2022-08-18T09:16:11.040Z,29.86
2022-08-18T09:18:54.024Z,30.00
2022-08-18T09:21:35.505Z,30.07
2022-08-18T09:24:11.386Z,30.20
2022-08-18T09:26:45.092Z,30.46
2022-08-18T09:29:23.684Z,30.59
2022-08-18T09:32:26.193Z,30.74
2022-08-18T09:35:05.521Z,30.94
2022-08-18T09:37:45.176Z,31.11
2022-08-18T09:41:01.022Z,31.11
2022-08-18T09:43:36.678Z,31.17
2022-08-18T09:46:06.057Z,31.26
2022-08-18T09:48:35.667Z,31.36
2022-08-18T09:51:35.954Z,31.49
2022-08-18T09:54:21.699Z,31.62
2022-08-18T09:57:19.181Z,31.62
2022-08-18T10:00:26.545Z,31.51
2022-08-18T10:03:12.541Z,31.40
2022-08-18T10:05:42.934Z,31.62
2022-08-18T10:08:42.733Z,31.54
2022-08-18T10:11:27.572Z,31.60
2022-08-18T10:14:07.917Z,31.71
2022-08-18T10:19:40.438Z,31.75
2022-08-18T10:22:09.941Z,31.32
2022-08-18T10:24:48.287Z,31.37
2022-08-18T10:27:50.809Z,31.54
2022-08-18T10:31:06.155Z,31.59
2022-08-18T10:34:00.170Z,31.61
2022-08-18T10:36:50.521Z,31.64
2022-08-18T10:39:21.514Z,31.95
2022-08-18T10:42:14.858Z,32.14
2022-08-18T10:44:45.135Z,32.19
2022-08-18T10:47:24.743Z,32.24
2022-08-18T10:49:53.762Z,32.23
2022-08-18T10:52:45.915Z,32.25
2022-08-18T10:55:26.405Z,32.32
2022-08-18T10:58:37.782Z,32.42
2022-08-18T11:01:19.373Z,32.50
2022-08-18T11:04:13.850Z,32.75
2022-08-18T11:06:53.833Z,32.91
2022-08-18T11:09:24.873Z,32.99
2022-08-18T11:18:10.678Z,33.46
2022-08-18T11:20:43.249Z,33.59
2022-08-18T11:23:15.645Z,33.71
2022-08-18T11:25:44.964Z,33.86
2022-08-18T11:28:18.655Z,33.99
2022-08-18T11:30:52.541Z,33.99
2022-08-18T11:36:10.283Z,34.08
2022-08-18T11:38:42.162Z,34.17
2022-08-18T11:41:19.113Z,34.28
2022-08-18T11:43:50.552Z,34.24
2022-08-18T11:46:30.390Z,34.51
2022-08-18T11:49:01.217Z,34.69
2022-08-18T11:51:32.401Z,34.62
2022-08-18T11:54:02.421Z,34.85
2022-08-18T11:59:54.978Z,35.04
2022-08-18T12:02:30.433Z,35.25
2022-08-18T12:05:08.391Z,35.32
2022-08-18T12:07:38.657Z,35.39
2022-08-18T12:10:28.618Z,35.62
2022-08-18T12:13:00.454Z,35.75
2022-08-18T12:15:46.286Z,35.65
2022-08-18T12:18:28.365Z,35.76
2022-08-18T12:20:58.721Z,35.81
2022-08-18T12:23:38.474Z,36.05
2022-08-18T12:26:27.434Z,36.08
2022-08-18T12:29:01.654Z,36.14
2022-08-18T12:31:42.714Z,36.46
2022-08-18T12:37:54.463Z,36.50
2022-08-18T12:40:06.116Z,36.43
2022-08-18T12:42:34.880Z,36.74
2022-08-18T12:45:03.840Z,36.79
2022-08-18T12:47:32.471Z,36.85
2022-08-18T12:50:08.964Z,36.95
2022-08-18T12:52:39.009Z,37.02
2022-08-18T12:55:21.444Z,37.04
2022-08-18T12:57:53.352Z,37.09
2022-08-18T13:00:29.021Z,37.14
2022-08-18T13:02:57.890Z,37.07
2022-08-18T13:05:29.847Z,37.30
2022-08-18T13:07:59.918Z,37.38
2022-08-18T13:10:42.822Z,37.34
2022-08-18T13:13:15.396Z,37.38
2022-08-18T13:15:55.239Z,37.51
2022-08-18T13:18:27.314Z,37.47
2022-08-18T13:20:59.181Z,37.30
2022-08-18T13:23:28.783Z,37.58
2022-08-18T13:26:01.520Z,37.66
2022-08-18T13:28:35.575Z,37.72
2022-08-18T13:31:05.724Z,37.82
2022-08-18T13:33:56.848Z,37.64
2022-08-18T13:36:25.330Z,37.76
2022-08-18T13:38:57.064Z,37.79
2022-08-18T13:43:56.407Z,38.13
2022-08-18T13:46:30.902Z,37.99
2022-08-18T13:49:03.038Z,38.09
2022-08-18T13:51:33.110Z,37.80
2022-08-18T13:56:51.333Z,38.09
2022-08-18T13:59:21.737Z,37.93
2022-08-18T14:01:53.003Z,37.72
2022-08-18T14:04:23.065Z,37.68
2022-08-18T14:06:59.941Z,37.87
2022-08-18T14:09:37.721Z,37.98
2022-08-18T14:12:15.334Z,37.93
2022-08-18T14:14:50.041Z,37.95
2022-08-18T14:17:22.337Z,37.71
2022-08-18T14:20:10.159Z,37.50
2022-08-18T14:22:57.978Z,37.54
2022-08-18T14:25:43.928Z,37.40
2022-08-18T14:28:12.222Z,37.38
2022-08-18T14:30:40.772Z,37.12
2022-08-18T14:33:21.729Z,36.88
2022-08-18T14:36:07.031Z,36.34
2022-08-18T14:38:39.882Z,36.11
2022-08-18T14:41:11.453Z,35.66
2022-08-18T14:44:04.560Z,35.39
2022-08-18T14:46:30.686Z,35.24
2022-08-18T14:49:04.118Z,35.12
2022-08-18T14:51:33.614Z,35.07
2022-08-18T14:54:05.373Z,35.09
2022-08-18T14:56:38.780Z,35.02
2022-08-18T14:59:08.302Z,34.94
2022-08-18T15:01:36.740Z,34.83
2022-08-18T15:04:18.690Z,34.73
2022-08-18T15:06:56.664Z,34.76
2022-08-18T15:09:27.522Z,35.01
2022-08-18T15:11:58.475Z,35.40
2022-08-18T15:14:33.140Z,35.67
2022-08-18T15:17:03.113Z,36.01
2022-08-18T15:20:00.034Z,36.02
2022-08-18T15:22:45.312Z,36.26
2022-08-18T15:25:31.946Z,36.49
2022-08-18T15:28:00.504Z,36.03
2022-08-18T15:30:30.548Z,35.76
2022-08-18T15:32:59.151Z,35.46
2022-08-18T15:35:32.385Z,35.13
2022-08-18T15:38:05.579Z,34.90
2022-08-18T15:40:41.296Z,34.62
2022-08-18T15:43:11.402Z,34.47
2022-08-18T15:45:57.793Z,34.46
2022-08-18T15:48:35.645Z,34.31
2022-08-18T15:51:11.927Z,34.20
2022-08-18T15:53:46.530Z,34.12
2022-08-18T15:56:21.154Z,34.00
2022-08-18T15:58:50.635Z,33.92
2022-08-18T16:01:30.260Z,33.90
2022-08-18T16:04:01.372Z,33.84
2022-08-18T16:06:32.342Z,33.74
2022-08-18T16:09:02.056Z,33.71
2022-08-18T16:11:34.183Z,33.67
2022-08-18T16:14:02.344Z,33.30
2022-08-18T16:16:36.050Z,33.13
2022-08-18T16:19:14.630Z,33.11
2022-08-18T16:21:42.788Z,32.94
2022-08-18T16:24:21.779Z,32.74
2022-08-18T16:26:52.580Z,32.76
2022-08-18T16:29:21.274Z,32.57
2022-08-18T16:31:52.499Z,32.67
2022-08-18T16:34:21.751Z,32.32
2022-08-18T16:36:54.695Z,32.28
2022-08-18T16:39:29.491Z,32.20
2022-08-18T16:42:04.024Z,32.10
2022-08-18T16:44:32.784Z,32.02
2022-08-18T16:47:01.691Z,31.99
2022-08-18T16:49:29.940Z,32.06
2022-08-18T16:51:58.056Z,31.60
2022-08-18T16:54:29.284Z,31.56
2022-08-18T16:57:02.007Z,31.07
2022-08-18T16:59:47.432Z,30.89
2022-08-18T17:02:32.928Z,30.52
2022-08-18T17:05:02.858Z,30.32
2022-08-18T17:07:31.886Z,30.28
2022-08-18T17:10:00.014Z,30.41
2022-08-18T17:12:29.831Z,30.31
2022-08-18T17:14:58.051Z,29.80
2022-08-18T17:17:26.149Z,29.75
2022-08-18T17:19:54.285Z,29.84
2022-08-18T17:22:25.275Z,29.60
2022-08-18T17:24:55.696Z,29.37
2022-08-18T17:27:37.290Z,29.34
2022-08-18T17:30:10.727Z,29.10
2022-08-18T17:32:42.913Z,29.15
2022-08-18T17:35:20.620Z,28.93
2022-08-18T17:38:02.496Z,28.89
2022-08-18T17:40:39.172Z,28.68
2022-08-18T17:43:11.183Z,28.48
2022-08-18T17:45:39.321Z,28.59
2022-08-18T17:48:11.165Z,28.26
2022-08-18T17:50:59.103Z,28.44
2022-08-18T17:53:27.262Z,28.49
2022-08-18T17:56:00.066Z,28.56
2022-08-18T17:58:34.323Z,28.22
2022-08-18T18:01:04.519Z,28.44
2022-08-18T18:03:34.141Z,28.50
2022-08-18T18:06:18.550Z,28.35
2022-08-18T18:08:52.039Z,28.08
2022-08-18T18:11:27.183Z,28.19
2022-08-18T18:13:56.937Z,28.36
2022-08-18T18:16:29.793Z,28.28
2022-08-18T18:19:02.802Z,28.08
2022-08-18T18:21:56.564Z,28.24
2022-08-18T18:24:24.055Z,28.41
2022-08-18T18:26:53.237Z,28.40
2022-08-18T18:29:29.123Z,28.19
2022-08-18T18:32:03.182Z,28.29
2022-08-18T18:34:38.038Z,28.06
2022-08-18T18:37:08.132Z,28.14
2022-08-18T18:39:37.851Z,28.05
2022-08-18T18:42:18.035Z,28.30
2022-08-18T18:44:55.971Z,28.11
2022-08-18T18:47:43.244Z,28.30
2022-08-18T18:50:18.560Z,28.21
2022-08-18T18:52:55.057Z,28.30
2022-08-18T18:55:25.849Z,28.27
2022-08-18T18:58:06.876Z,28.03
2022-08-18T19:00:41.957Z,28.02
2022-08-18T19:03:13.602Z,28.07
2022-08-18T19:05:45.942Z,28.06
2022-08-18T19:08:25.475Z,28.10
2022-08-18T19:10:58.399Z,28.03
2022-08-18T19:13:32.786Z,28.10
2022-08-18T19:16:23.273Z,28.20
2022-08-18T19:19:35.018Z,28.26
2022-08-18T19:22:04.976Z,28.11
2022-08-18T19:24:38.669Z,28.19
2022-08-18T19:27:08.658Z,28.06
2022-08-18T19:29:41.616Z,28.01
2022-08-18T19:32:16.804Z,27.90
2022-08-18T19:34:52.509Z,27.95
2022-08-18T19:37:32.587Z,27.82
2022-08-18T19:40:07.308Z,28.09
2022-08-18T19:42:41.095Z,27.67
2022-08-18T19:45:17.160Z,27.35
2022-08-18T19:47:51.065Z,27.54
2022-08-18T19:50:26.117Z,27.43
2022-08-18T19:53:33.579Z,27.64
2022-08-18T19:56:21.706Z,27.38
2022-08-18T19:59:18.602Z,27.40
2022-08-18T20:01:55.325Z,27.59
2022-08-18T20:04:36.848Z,27.46
2022-08-18T20:07:38.000Z,27.35
2022-08-18T20:10:28.511Z,27.33
2022-08-18T20:13:11.167Z,27.50
2022-08-18T20:16:00.424Z,27.39
2022-08-18T20:18:34.625Z,27.45
2022-08-18T20:21:39.855Z,27.44
2022-08-18T20:24:33.873Z,27.18
2022-08-18T20:27:32.814Z,27.39
2022-08-18T20:30:26.241Z,27.22
2022-08-18T20:33:15.413Z,27.25
2022-08-18T20:35:47.351Z,27.15
2022-08-18T20:38:21.650Z,27.18
2022-08-18T20:40:52.355Z,27.17
2022-08-18T20:43:27.510Z,27.40
2022-08-18T20:46:13.676Z,27.16
2022-08-18T20:49:06.026Z,27.20
2022-08-18T20:51:41.072Z,27.24
2022-08-18T20:54:19.548Z,27.30
2022-08-18T20:56:52.424Z,27.34
2022-08-18T20:59:24.048Z,27.11
2022-08-18T21:02:00.985Z,27.29
2022-08-18T21:04:46.902Z,27.16
2022-08-18T21:07:36.169Z,27.31
2022-08-18T21:10:12.273Z,27.10
2022-08-18T21:12:52.617Z,27.20
2022-08-18T21:15:23.892Z,27.25
2022-08-18T21:17:58.806Z,27.41
2022-08-18T21:20:28.186Z,27.33
2022-08-18T21:23:04.153Z,27.19
2022-08-18T21:25:33.764Z,27.18
2022-08-18T21:28:04.103Z,27.19
2022-08-18T21:30:32.829Z,27.12
2022-08-18T21:33:02.107Z,27.19
2022-08-18T21:35:32.812Z,27.09
2022-08-18T21:38:04.083Z,27.07
2022-08-18T21:40:39.430Z,27.07
2022-08-18T21:43:10.739Z,26.93
2022-08-18T21:45:47.582Z,26.87
2022-08-18T21:48:16.191Z,27.01
2022-08-18T21:50:51.476Z,26.71
2022-08-18T21:53:23.520Z,26.65
2022-08-18T21:55:55.074Z,26.74
2022-08-18T21:58:32.946Z,26.78
2022-08-18T22:01:21.994Z,26.50
2022-08-18T22:03:53.172Z,26.73
2022-08-18T22:06:28.470Z,26.93
2022-08-18T22:08:59.912Z,26.69
2022-08-18T22:12:00.902Z,26.81
2022-08-18T22:14:53.618Z,26.86
2022-08-18T22:17:33.653Z,26.87
2022-08-18T22:20:37.190Z,26.76
2022-08-18T22:23:28.018Z,26.72
2022-08-18T22:26:07.283Z,26.75
2022-08-18T22:28:36.841Z,26.84
2022-08-18T22:31:06.534Z,26.41
2022-08-18T22:33:34.643Z,26.48
2022-08-18T22:36:03.914Z,26.64
2022-08-18T22:38:32.298Z,26.67
2022-08-18T22:41:00.817Z,26.56
2022-08-18T22:43:29.184Z,26.52
2022-08-18T22:45:57.330Z,26.44
2022-08-18T22:48:27.225Z,26.47
2022-08-18T22:50:55.587Z,26.57
2022-08-18T22:53:23.797Z,26.37
2022-08-18T22:55:53.326Z,26.42
2022-08-18T22:58:28.164Z,26.43
2022-08-18T23:01:05.400Z,26.52
2022-08-18T23:03:41.871Z,26.42
2022-08-18T23:06:11.125Z,26.44
2022-08-18T23:08:55.421Z,26.41
2022-08-18T23:11:25.071Z,26.56
2022-08-18T23:13:54.057Z,26.54
2022-08-18T23:16:31.578Z,26.57
2022-08-18T23:19:03.021Z,26.47
2022-08-18T23:21:35.485Z,26.36
2022-08-18T23:24:05.696Z,26.47
2022-08-18T23:26:34.181Z,26.53
2022-08-18T23:29:02.960Z,26.58
2022-08-18T23:31:31.642Z,26.36
2022-08-18T23:34:02.980Z,26.47
2022-08-18T23:36:35.559Z,26.47
2022-08-18T23:39:04.226Z,26.39
2022-08-18T23:41:32.722Z,26.61
2022-08-18T23:44:01.821Z,26.59
2022-08-18T23:46:32.043Z,26.54
2022-08-18T23:49:04.427Z,26.36
2022-08-18T23:51:34.835Z,26.23
2022-08-18T23:54:07.457Z,26.12
2022-08-18T23:56:38.153Z,26.16
2022-08-18T23:59:07.713Z,26.29
